Time;durP1;ratioP1;P1;durP2;ratioP2;P2;SDS_P1;SDS_P2;PMS_P1;PMS_P2;Temp;Humidity;BMP_temperature;BMP_pressure;BME280_temperature;BME280_humidity;BME280_pressure;Samples;Min_cycle;Max_cycle;Signal;HPM_P1;HPM_P2
2022/06/15 00:00:34;;;;;;;6.45;1.65;;;17.00;99.90;;;;;;4181560;28;20174;-92
2022/06/15 00:02:35;;;;;;;9.05;1.80;;;17.00;99.90;;;;;;4165055;28;20660;-91
2022/06/15 00:04:36;;;;;;;3.65;1.50;;;17.00;99.90;;;;;;4181170;28;20262;-88
2022/06/15 00:06:40;;;;;;;5.40;1.60;;;17.00;99.90;;;;;;4181347;28;20175;-93
2022/06/15 00:08:43;;;;;;;6.60;1.90;;;17.00;99.90;;;;;;4181534;28;20202;-91
2022/06/15 00:10:44;;;;;;;7.22;1.83;;;17.10;99.90;;;;;;4198011;28;20171;-91
2022/06/15 00:12:44;;;;;;;8.88;1.80;;;17.00;99.90;;;;;;4165009;28;20262;-91
2022/06/15 00:14:45;;;;;;;13.35;2.70;;;17.00;99.90;;;;;;4181197;28;20176;-88
2022/06/15 00:16:46;;;;;;;5.57;2.05;;;16.80;99.90;;;;;;4165058;28;20187;-90
2022/06/15 00:18:47;;;;;;;9.18;1.80;;;16.80;99.90;;;;;;4181521;28;20668;-87
2022/06/15 00:20:48;;;;;;;8.85;1.88;;;16.70;99.90;;;;;;4181654;28;20198;-87
2022/06/15 00:22:48;;;;;;;8.10;2.05;;;16.70;99.90;;;;;;4181333;28;20183;-88
2022/06/15 00:24:49;;;;;;;9.93;2.50;;;16.60;99.90;;;;;;4164799;28;20176;-88
2022/06/15 00:26:50;;;;;;;4.30;1.70;;;16.60;99.90;;;;;;4181220;28;20167;-91
2022/06/15 00:28:51;;;;;;;9.52;1.90;;;16.60;99.90;;;;;;4181040;28;20274;-88
2022/06/15 00:30:53;;;;;;;6.22;1.80;;;16.60;99.90;;;;;;4181238;28;20183;-88
2022/06/15 00:32:54;;;;;;;7.57;2.35;;;16.70;99.90;;;;;;4164748;28;20176;-93
2022/06/15 00:34:54;;;;;;;9.23;2.15;;;16.60;99.90;;;;;;4181114;28;20171;-87
2022/06/15 00:36:55;;;;;;;9.50;1.80;;;16.60;99.90;;;;;;4164645;28;20801;-94
2022/06/15 00:38:57;;;;;;;5.78;1.70;;;16.50;99.90;;;;;;4164742;28;20253;-87
2022/06/15 00:40:59;;;;;;;6.65;2.00;;;16.50;99.90;;;;;;4164587;28;20172;-87
2022/06/15 00:43:00;;;;;;;5.85;1.75;;;16.40;99.90;;;;;;4164532;28;20214;-93
2022/06/15 00:45:02;;;;;;;7.53;1.90;;;16.40;99.90;;;;;;4164671;28;20187;-91
2022/06/15 00:47:12;;;;;;;8.05;2.15;;;16.40;99.90;;;;;;4181028;28;20566;-88
2022/06/15 00:49:25;;;;;;;8.55;1.65;;;16.40;99.90;;;;;;4164572;28;20230;-92
2022/06/15 00:51:26;;;;;;;5.93;1.83;;;16.30;99.90;;;;;;4181169;28;20213;-88
2022/06/15 00:53:27;;;;;;;4.68;1.80;;;16.20;99.90;;;;;;4164404;28;20266;-88
2022/06/15 00:55:31;;;;;;;5.95;1.70;;;16.20;99.90;;;;;;4180840;28;20521;-88
2022/06/15 00:57:33;;;;;;;15.40;2.22;;;16.20;99.90;;;;;;4164634;28;20180;-92
2022/06/15 00:59:46;;;;;;;8.80;2.53;;;16.20;99.90;;;;;;4180678;28;20242;-92
2022/06/15 01:01:47;;;;;;;9.98;2.20;;;16.20;99.90;;;;;;4180814;28;20183;-91
2022/06/15 01:03:52;;;;;;;7.13;2.03;;;16.30;99.90;;;;;;4164596;28;20175;-93
2022/06/15 01:06:05;;;;;;;8.60;2.10;;;16.30;99.90;;;;;;4164507;28;20182;-87
2022/06/15 01:08:15;;;;;;;5.80;1.80;;;16.40;99.90;;;;;;4166290;28;20604;-91
2022/06/15 01:10:34;;;;;;;6.85;1.85;;;16.40;99.90;;;;;;4167750;28;20168;-88
2022/06/15 01:12:50;;;;;;;6.65;1.90;;;16.40;99.90;;;;;;4167705;28;20242;-90
2022/06/15 01:15:21;;;;;;;4.75;2.00;;;16.40;99.90;;;;;;4167773;28;20262;-88
2022/06/15 01:17:43;;;;;;;7.47;1.65;;;16.30;99.90;;;;;;4167870;28;20207;-88
2022/06/15 01:20:09;;;;;;;7.22;2.03;;;16.30;99.90;;;;;;4167515;28;20172;-88
2022/06/15 01:22:28;;;;;;;7.10;2.38;;;16.30;99.90;;;;;;4167268;28;20172;-92
2022/06/15 01:24:47;;;;;;;6.57;1.90;;;16.40;99.90;;;;;;4167237;28;20184;-87
2022/06/15 01:27:13;;;;;;;9.25;1.98;;;16.40;99.90;;;;;;4167380;28;20179;-88
2022/06/15 01:29:43;;;;;;;7.78;2.00;;;16.30;99.90;;;;;;4183972;28;20238;-91
2022/06/15 01:32:11;;;;;;;9.75;2.13;;;16.30;99.90;;;;;;4184970;28;20171;-93
2022/06/15 01:34:31;;;;;;;6.90;1.95;;;16.30;99.90;;;;;;4167325;28;20330;-88
2022/06/15 01:36:46;;;;;;;8.77;2.10;;;16.10;99.90;;;;;;4183846;28;20195;-93
2022/06/15 01:39:21;;;;;;;4.72;2.00;;;16.10;99.90;;;;;;4167298;28;20231;-90
2022/06/15 01:41:39;;;;;;;10.07;2.05;;;16.00;99.90;;;;;;4167085;28;20684;-92
2022/06/15 01:44:06;;;;;;;9.65;2.20;;;15.90;99.90;;;;;;4183487;28;20209;-88
2022/06/15 01:46:08;;;;;;;6.68;2.53;;;15.90;99.90;;;;;;4156398;28;20172;-88
2022/06/15 01:48:12;;;;;;;8.48;1.98;;;15.90;99.90;;;;;;4166935;28;20223;-88
2022/06/15 01:50:18;;;;;;;8.23;2.33;;;15.90;99.90;;;;;;4167331;28;20602;-93
2022/06/15 01:52:23;;;;;;;8.25;2.05;;;15.90;99.90;;;;;;4183501;28;20210;-89
2022/06/15 01:54:39;;;;;;;16.08;2.28;;;16.00;99.90;;;;;;4166787;28;20253;-89
2022/06/15 01:56:45;;;;;;;6.95;1.95;;;15.90;99.90;;;;;;4183225;28;20250;-87
2022/06/15 01:58:58;;;;;;;6.03;1.85;;;16.00;99.90;;;;;;4167387;28;20195;-88
2022/06/15 02:01:07;;;;;;;7.47;1.90;;;15.90;99.90;;;;;;4166938;28;20672;-93
2022/06/15 02:03:17;;;;;;;5.45;2.15;;;16.00;99.90;;;;;;4183531;28;20175;-89
2022/06/15 02:05:23;;;;;;;5.18;1.88;;;16.00;99.90;;;;;;4183428;28;20175;-89
2022/06/15 02:07:40;;;;;;;5.90;2.40;;;16.10;99.90;;;;;;4166845;28;20208;-88
2022/06/15 02:09:51;;;;;;;8.65;2.47;;;16.10;99.90;;;;;;4166695;28;20263;-87
2022/06/15 02:11:55;;;;;;;4.85;2.00;;;16.20;99.90;;;;;;4166907;28;20675;-88
2022/06/15 02:14:26;;;;;;;8.48;2.10;;;16.20;99.90;;;;;;4183082;28;20171;-88
2022/06/15 02:16:34;;;;;;;4.70;2.10;;;16.20;99.90;;;;;;4165662;28;20180;-89
2022/06/15 02:18:39;;;;;;;8.00;2.03;;;16.30;99.90;;;;;;4166099;28;20192;-92
2022/06/15 02:20:51;;;;;;;10.05;2.20;;;16.20;99.90;;;;;;4166168;28;20180;-88
2022/06/15 02:22:53;;;;;;;7.80;2.30;;;16.10;99.90;;;;;;4166714;28;20782;-90
2022/06/15 02:24:57;;;;;;;6.68;2.20;;;16.00;99.90;;;;;;4166706;28;20210;-88
2022/06/15 02:26:59;;;;;;;7.22;2.10;;;15.80;99.90;;;;;;4183271;28;20172;-92
2022/06/15 02:29:11;;;;;;;6.10;1.88;;;15.70;99.90;;;;;;4166608;28;20203;-88
2022/06/15 02:31:18;;;;;;;10.65;2.30;;;15.70;99.90;;;;;;4167386;28;20244;-88
2022/06/15 02:33:32;;;;;;;7.78;2.78;;;15.60;99.90;;;;;;4166459;28;20173;-92
2022/06/15 02:35:35;;;;;;;9.27;2.47;;;15.40;99.90;;;;;;4182889;28;20168;-90
2022/06/15 02:37:37;;;;;;;9.70;2.10;;;15.40;99.90;;;;;;4183120;28;20236;-87
2022/06/15 02:39:38;;;;;;;6.20;2.40;;;15.50;99.90;;;;;;4182904;28;20194;-88
2022/06/15 02:41:40;;;;;;;7.57;2.47;;;15.70;99.90;;;;;;4182727;28;20176;-88
2022/06/15 02:43:43;;;;;;;7.95;2.60;;;16.00;99.90;;;;;;4183016;28;20171;-92
2022/06/15 02:45:47;;;;;;;7.30;2.47;;;16.10;99.90;;;;;;4182696;28;20180;-87
2022/06/15 02:47:49;;;;;;;6.22;2.10;;;16.10;99.90;;;;;;4182526;28;20242;-89
2022/06/15 02:49:51;;;;;;;13.18;2.70;;;16.00;99.90;;;;;;4182782;28;20552;-88
2022/06/15 02:52:04;;;;;;;6.78;2.50;;;16.00;99.90;;;;;;4166398;28;20637;-88
2022/06/15 02:54:15;;;;;;;7.10;2.30;;;15.90;99.90;;;;;;4165848;28;20262;-93
2022/06/15 02:56:20;;;;;;;6.63;2.17;;;15.80;99.90;;;;;;4166584;28;20184;-89
2022/06/15 02:58:41;;;;;;;6.47;2.40;;;15.90;99.90;;;;;;4166071;28;20196;-92
2022/06/15 03:00:42;;;;;;;8.18;2.55;;;15.90;99.90;;;;;;4165734;28;20200;-92
2022/06/15 03:02:44;;;;;;;5.35;2.60;;;15.80;99.90;;;;;;4166139;28;20172;-93
2022/06/15 03:04:46;;;;;;;6.40;2.60;;;15.80;99.90;;;;;;4166148;28;20214;-87
2022/06/15 03:06:48;;;;;;;8.52;2.70;;;15.90;99.90;;;;;;4182366;28;20164;-88
2022/06/15 03:08:52;;;;;;;8.35;2.45;;;15.90;99.90;;;;;;4182410;28;20285;-92
2022/06/15 03:11:00;;;;;;;8.48;2.97;;;15.90;99.90;;;;;;4166776;28;20214;-88
2022/06/15 03:13:01;;;;;;;6.90;2.63;;;15.90;99.90;;;;;;4165852;28;20188;-92
2022/06/15 03:15:04;;;;;;;7.93;2.22;;;15.90;99.90;;;;;;4182243;28;20171;-92
2022/06/15 03:17:05;;;;;;;5.80;2.42;;;15.90;99.90;;;;;;4165658;28;20227;-91
2022/06/15 03:19:21;;;;;;;8.07;2.25;;;15.70;99.90;;;;;;4167651;28;20207;-90
2022/06/15 03:21:28;;;;;;;7.18;2.50;;;15.70;99.90;;;;;;4166794;28;20560;-92
2022/06/15 03:23:30;;;;;;;8.02;2.58;;;15.50;99.90;;;;;;4165784;28;20229;-88
2022/06/15 03:25:32;;;;;;;7.13;2.50;;;15.60;99.90;;;;;;4165472;28;20168;-92
2022/06/15 03:27:35;;;;;;;7.82;2.80;;;15.60;99.90;;;;;;4181970;28;20237;-88
2022/06/15 03:29:36;;;;;;;11.30;3.10;;;15.60;99.90;;;;;;4165441;28;20192;-90
2022/06/15 03:31:41;;;;;;;5.63;2.83;;;15.50;99.90;;;;;;4181670;28;20175;-93
2022/06/15 03:33:42;;;;;;;11.80;2.90;;;15.40;99.90;;;;;;4165389;28;20520;-92
2022/06/15 03:35:48;;;;;;;8.55;2.42;;;15.30;99.90;;;;;;4166249;28;20183;-88
2022/06/15 03:37:55;;;;;;;8.63;2.67;;;15.20;99.90;;;;;;4181832;28;20186;-92
2022/06/15 03:40:09;;;;;;;9.27;3.15;;;15.20;99.90;;;;;;4166499;28;20282;-92
2022/06/15 03:42:18;;;;;;;6.70;2.90;;;15.10;99.90;;;;;;4181882;28;20175;-92
2022/06/15 03:44:19;;;;;;;7.80;2.90;;;15.10;99.90;;;;;;4181804;28;20167;-88
2022/06/15 03:46:22;;;;;;;5.10;2.50;;;14.90;99.90;;;;;;4165294;28;20652;-93
2022/06/15 03:48:24;;;;;;;11.18;3.40;;;15.00;99.90;;;;;;4181939;28;20245;-90
2022/06/15 03:50:27;;;;;;;7.80;3.10;;;14.90;99.90;;;;;;4182048;28;20191;-92
2022/06/15 03:52:32;;;;;;;8.05;2.92;;;14.90;99.90;;;;;;4166038;28;20261;-88
2022/06/15 03:54:35;;;;;;;7.30;3.10;;;14.90;99.90;;;;;;4182287;28;20166;-89
2022/06/15 03:56:40;;;;;;;5.30;2.88;;;14.90;99.90;;;;;;4165367;28;20188;-93
2022/06/15 03:58:45;;;;;;;8.80;2.75;;;14.90;99.90;;;;;;4165264;28;20195;-92
2022/06/15 04:00:48;;;;;;;8.63;2.60;;;14.90;99.90;;;;;;4165098;28;20179;-91
2022/06/15 04:02:52;;;;;;;6.78;2.78;;;14.90;99.90;;;;;;4181346;28;20172;-87
2022/06/15 04:05:20;;;;;;;11.67;2.63;;;15.00;99.90;;;;;;4181779;28;20179;-93
2022/06/15 04:09:41;;;;;;;7.70;2.58;;;15.10;99.90;;;;;;4181597;28;20667;-91
2022/06/15 04:14:10;;;;;;;8.52;2.80;;;15.10;99.90;;;;;;4181485;28;20185;-91
2022/06/15 04:16:12;;;;;;;7.35;3.10;;;15.10;99.90;;;;;;4164925;28;20536;-88
2022/06/15 04:18:12;;;;;;;10.27;3.10;;;15.10;99.90;;;;;;4181102;28;20203;-90
2022/06/15 04:20:36;;;;;;;9.68;3.22;;;15.00;99.90;;;;;;4181346;28;20242;-90
2022/06/15 04:22:42;;;;;;;5.93;2.80;;;15.00;99.90;;;;;;4181568;28;20225;-88
2022/06/15 04:24:44;;;;;;;9.60;3.60;;;14.90;99.90;;;;;;4164788;28;20172;-92
2022/06/15 04:26:46;;;;;;;13.32;3.70;;;14.90;99.90;;;;;;4164183;28;20210;-93
2022/06/15 04:28:51;;;;;;;9.45;2.80;;;14.90;99.90;;;;;;4181100;28;20310;-88
2022/06/15 04:30:56;;;;;;;8.50;3.22;;;14.80;99.90;;;;;;4181421;28;20520;-88
2022/06/15 04:33:01;;;;;;;11.13;3.08;;;14.80;99.90;;;;;;4165005;28;20211;-90
2022/06/15 04:35:08;;;;;;;7.57;3.17;;;14.70;99.90;;;;;;4165525;28;20188;-93
2022/06/15 04:37:11;;;;;;;12.90;3.20;;;14.70;99.90;;;;;;4165053;28;20255;-92
2022/06/15 04:39:18;;;;;;;10.57;3.50;;;14.70;99.90;;;;;;4181003;28;20199;-88
2022/06/15 04:41:20;;;;;;;9.95;3.55;;;14.80;99.90;;;;;;4164910;28;20688;-88
2022/06/15 04:43:21;;;;;;;8.68;3.47;;;14.80;99.90;;;;;;4163926;28;20224;-91
2022/06/15 04:45:23;;;;;;;9.77;3.47;;;14.80;99.90;;;;;;4164504;28;20184;-91
2022/06/15 04:47:34;;;;;;;10.85;4.07;;;14.80;99.90;;;;;;4180917;28;20298;-93
2022/06/15 04:49:36;;;;;;;15.37;3.73;;;14.80;99.90;;;;;;4164464;28;20196;-89
2022/06/15 04:51:41;;;;;;;12.85;3.85;;;14.70;99.90;;;;;;4164418;28;20183;-89
2022/06/15 04:53:43;;;;;;;10.98;4.03;;;14.60;99.90;;;;;;4164412;28;20176;-93
2022/06/15 04:55:43;;;;;;;11.73;4.10;;;14.60;99.90;;;;;;4180849;28;20194;-88
2022/06/15 04:57:46;;;;;;;11.32;4.35;;;14.70;99.90;;;;;;4180916;28;20218;-88
2022/06/15 04:59:47;;;;;;;10.93;4.30;;;14.70;99.90;;;;;;4180840;28;20556;-90
2022/06/15 05:01:50;;;;;;;10.88;4.25;;;14.70;99.90;;;;;;4164606;28;20632;-89
2022/06/15 05:03:52;;;;;;;12.60;4.03;;;14.70;99.90;;;;;;4180878;28;20195;-89
2022/06/15 05:05:57;;;;;;;9.40;4.35;;;14.70;99.90;;;;;;4180640;28;20216;-88
2022/06/15 05:07:59;;;;;;;13.77;4.50;;;14.60;99.90;;;;;;4180637;28;20207;-89
2022/06/15 05:10:01;;;;;;;8.88;3.92;;;14.60;99.90;;;;;;4164190;28;20255;-92
2022/06/15 05:12:01;;;;;;;10.60;4.13;;;14.60;99.90;;;;;;4181135;28;20167;-88
2022/06/15 05:14:05;;;;;;;8.23;4.45;;;14.70;99.90;;;;;;4164738;28;20706;-91
2022/06/15 05:16:11;;;;;;;13.60;4.40;;;14.70;99.90;;;;;;4165279;28;20172;-88
2022/06/15 05:18:11;;;;;;;9.18;4.82;;;14.90;99.90;;;;;;4164572;28;20280;-89
2022/06/15 05:20:15;;;;;;;17.23;4.68;;;15.00;99.90;;;;;;4164667;28;20595;-92
2022/06/15 05:22:16;;;;;;;9.68;4.60;;;15.10;99.90;;;;;;4164540;28;20631;-88
2022/06/15 05:24:18;;;;;;;11.50;4.40;;;15.20;99.90;;;;;;4180907;28;20233;-88
2022/06/15 05:26:25;;;;;;;10.55;4.35;;;15.30;99.90;;;;;;4165098;28;20675;-88
2022/06/15 05:28:27;;;;;;;16.60;5.30;;;15.40;99.90;;;;;;4164172;28;20216;-91
2022/06/15 05:30:28;;;;;;;19.67;4.35;;;15.40;99.90;;;;;;4164230;28;20199;-88
2022/06/15 05:32:33;;;;;;;19.50;5.40;;;15.40;99.90;;;;;;4164589;28;20161;-88
2022/06/15 05:34:35;;;;;;;8.18;4.88;;;15.50;99.90;;;;;;4164344;28;20172;-90
2022/06/15 05:36:38;;;;;;;8.73;4.70;;;15.50;99.90;;;;;;4164442;28;20177;-91
2022/06/15 05:38:40;;;;;;;16.77;5.28;;;15.50;99.90;;;;;;4164162;28;20257;-90
2022/06/15 05:40:42;;;;;;;17.77;5.50;;;15.60;99.90;;;;;;4180681;28;20178;-90
2022/06/15 05:42:42;;;;;;;8.00;4.28;;;15.60;99.90;;;;;;4164033;28;20179;-90
2022/06/15 05:44:53;;;;;;;11.18;4.72;;;15.70;99.90;;;;;;4164010;28;20182;-89
2022/06/15 05:46:56;;;;;;;16.40;4.93;;;15.70;99.90;;;;;;4164031;28;20195;-90
2022/06/15 05:49:04;;;;;;;11.65;5.32;;;15.70;99.90;;;;;;4164703;28;20261;-86
2022/06/15 05:51:05;;;;;;;13.25;5.03;;;15.80;99.90;;;;;;4164156;28;20230;-88
2022/06/15 05:53:07;;;;;;;10.45;5.07;;;15.80;99.90;;;;;;4164360;28;20183;-90
2022/06/15 05:55:08;;;;;;;14.60;5.50;;;15.80;99.90;;;;;;4184597;28;20179;-90
2022/06/15 05:57:15;;;;;;;14.18;5.07;;;15.90;99.90;;;;;;4167125;28;20631;-88
2022/06/15 05:59:16;;;;;;;13.50;5.05;;;15.90;99.90;;;;;;4183356;28;20195;-90
2022/06/15 06:01:25;;;;;;;10.05;5.40;;;15.90;99.90;;;;;;4184284;28;20218;-90
2022/06/15 06:03:25;;;;;;;13.70;5.30;;;16.10;99.90;;;;;;4166925;28;20267;-91
2022/06/15 06:05:26;;;;;;;14.98;4.93;;;16.10;99.90;;;;;;4166531;28;20168;-90
2022/06/15 06:07:27;;;;;;;14.57;5.68;;;16.20;99.90;;;;;;4183338;28;20211;-90
2022/06/15 06:09:28;;;;;;;9.35;5.20;;;16.30;99.90;;;;;;4183302;28;20179;-90
2022/06/15 06:11:29;;;;;;;12.45;4.85;;;16.30;99.90;;;;;;4166992;28;20188;-88
2022/06/15 06:13:30;;;;;;;14.77;5.15;;;16.30;99.90;;;;;;4166782;28;20179;-89
2022/06/15 06:15:31;;;;;;;13.52;5.55;;;16.40;99.90;;;;;;4183187;28;20174;-89
2022/06/15 06:17:32;;;;;;;13.27;5.68;;;16.30;99.90;;;;;;4166339;28;20177;-90
2022/06/15 06:19:33;;;;;;;13.85;4.97;;;16.40;99.90;;;;;;4184016;28;20245;-90
2022/06/15 06:21:34;;;;;;;13.93;5.35;;;16.50;99.90;;;;;;4166897;28;20207;-90
2022/06/15 06:23:35;;;;;;;13.35;5.75;;;16.50;99.90;;;;;;4182961;28;20179;-90
2022/06/15 06:25:35;;;;;;;13.80;5.22;;;16.50;99.90;;;;;;4166518;28;20168;-88
2022/06/15 06:27:36;;;;;;;11.82;5.72;;;16.60;99.90;;;;;;4183000;28;20349;-90
2022/06/15 06:29:37;;;;;;;17.38;5.88;;;16.60;99.90;;;;;;4166299;28;20203;-91
2022/06/15 06:31:41;;;;;;;14.43;5.68;;;16.70;99.90;;;;;;4183105;28;20632;-90
2022/06/15 06:33:42;;;;;;;13.85;5.40;;;16.80;99.90;;;;;;4182884;28;20648;-89
2022/06/15 06:35:44;;;;;;;10.48;5.75;;;16.90;99.90;;;;;;4166405;28;20649;-91
2022/06/15 06:37:45;;;;;;;15.15;5.35;;;17.00;99.90;;;;;;4166553;28;20172;-91
2022/06/15 06:39:46;;;;;;;13.77;5.88;;;17.00;99.90;;;;;;4166578;28;20708;-87
2022/06/15 06:41:47;;;;;;;13.70;5.63;;;17.00;99.90;;;;;;4166306;28;20188;-88
2022/06/15 06:43:48;;;;;;;10.38;5.05;;;17.10;99.90;;;;;;4182847;28;20629;-89
2022/06/15 06:45:49;;;;;;;11.52;5.70;;;17.10;99.90;;;;;;4166559;28;20355;-89
2022/06/15 06:47:50;;;;;;;15.65;5.43;;;17.30;99.90;;;;;;4166092;28;20207;-91
2022/06/15 06:49:51;;;;;;;8.80;5.50;;;17.40;99.90;;;;;;4166202;28;20188;-89
2022/06/15 06:51:52;;;;;;;12.95;5.57;;;17.50;99.90;;;;;;4182804;28;20646;-90
2022/06/15 06:53:52;;;;;;;11.98;5.35;;;17.50;99.90;;;;;;4166283;28;20176;-91
2022/06/15 06:55:53;;;;;;;14.40;5.15;;;17.80;99.90;;;;;;4165821;28;20283;-90
2022/06/15 06:57:58;;;;;;;15.30;5.93;;;17.80;99.90;;;;;;4165742;28;20172;-88
2022/06/15 06:59:59;;;;;;;12.18;5.85;;;18.10;99.90;;;;;;4182517;28;20175;-88
2022/06/15 07:01:59;;;;;;;11.25;5.25;;;18.20;99.90;;;;;;4166092;28;20172;-89
2022/06/15 07:04:00;;;;;;;12.95;4.53;;;18.20;99.90;;;;;;4182709;28;20198;-91
2022/06/15 07:06:03;;;;;;;13.68;5.13;;;18.30;99.90;;;;;;4165214;28;20259;-91
2022/06/15 07:08:04;;;;;;;14.80;5.55;;;18.50;99.90;;;;;;4165947;28;20215;-92
2022/06/15 07:10:06;;;;;;;10.68;4.70;;;18.70;99.90;;;;;;4165814;28;20169;-91
2022/06/15 07:12:07;;;;;;;14.52;4.80;;;18.90;99.90;;;;;;4182198;28;20543;-88
2022/06/15 07:14:07;;;;;;;12.30;4.20;;;19.30;99.90;;;;;;4182238;28;20658;-91
2022/06/15 07:16:13;;;;;;;12.50;5.00;;;20.30;99.90;;;;;;4182273;28;20180;-90
2022/06/15 07:18:14;;;;;;;20.83;4.38;;;21.80;99.90;;;;;;4165866;28;20645;-88
2022/06/15 07:20:14;;;;;;;11.55;4.10;;;22.90;99.90;;;;;;4182410;28;20180;-91
2022/06/15 07:22:15;;;;;;;10.88;3.97;;;23.70;99.90;;;;;;4182196;28;20301;-91
2022/06/15 07:24:16;;;;;;;17.80;4.35;;;24.30;99.90;;;;;;4165350;28;20172;-90
2022/06/15 07:26:38;;;;;;;13.55;3.97;;;24.70;99.90;;;;;;4165477;28;20208;-91
2022/06/15 07:28:40;;;;;;;9.82;3.88;;;24.90;99.90;;;;;;4181814;28;20214;-92
2022/06/15 07:30:41;;;;;;;11.48;3.47;;;25.00;99.90;;;;;;4181747;28;20174;-88
2022/06/15 07:32:43;;;;;;;9.18;3.55;;;25.30;99.90;;;;;;4165456;28;20184;-90
2022/06/15 07:34:44;;;;;;;11.65;3.95;;;25.60;99.90;;;;;;4182015;28;20176;-92
2022/06/15 07:36:47;;;;;;;9.43;4.25;;;25.70;99.90;;;;;;4181986;28;20207;-88
2022/06/15 07:38:48;;;;;;;15.43;4.25;;;25.60;99.90;;;;;;4181901;28;20222;-92
2022/06/15 07:40:50;;;;;;;9.05;3.65;;;25.90;99.90;;;;;;4165347;28;20184;-90
2022/06/15 07:42:53;;;;;;;12.43;3.83;;;26.50;99.90;;;;;;4165276;28;20175;-90
2022/06/15 07:44:54;;;;;;;9.27;3.35;;;27.10;99.90;;;;;;4165061;28;20240;-91
2022/06/15 07:51:40;;;;;;;13.88;3.88;;;29.30;99.90;;;;;;4197981;28;20183;-91
2022/06/15 07:53:41;;;;;;;8.30;3.83;;;28.90;99.90;;;;;;4198143;28;20174;-91
2022/06/15 07:55:45;;;;;;;9.13;4.15;;;28.90;99.90;;;;;;4165027;28;20196;-90
2022/06/15 07:57:46;;;;;;;14.30;4.22;;;28.70;99.90;;;;;;4164999;28;20172;-88
2022/06/15 07:59:47;;;;;;;16.75;3.70;;;28.50;99.90;;;;;;4165089;28;20238;-90
2022/06/15 08:01:47;;;;;;;12.18;3.95;;;28.60;99.90;;;;;;4165002;28;20153;-90
2022/06/15 08:03:49;;;;;;;9.85;3.38;;;28.60;99.90;;;;;;4164957;28;20234;-91
2022/06/15 08:05:50;;;;;;;6.53;3.42;;;28.40;99.90;;;;;;4181321;28;20233;-88
2022/06/15 08:07:51;;;;;;;8.35;3.40;;;28.00;99.90;;;;;;4164966;28;20242;-91
2022/06/15 08:09:52;;;;;;;13.70;4.15;;;27.70;99.90;;;;;;4181509;28;20163;-91
2022/06/15 08:12:11;;;;;;;10.27;3.50;;;27.60;99.90;;;;;;4181595;28;20179;-89
2022/06/15 08:14:12;;;;;;;10.38;4.18;;;27.40;99.90;;;;;;4164977;28;20168;-90
2022/06/15 08:16:14;;;;;;;12.25;3.90;;;27.20;99.90;;;;;;4181413;28;20279;-90
2022/06/15 08:18:20;;;;;;;8.77;3.95;;;27.00;99.90;;;;;;4165034;28;20295;-91
2022/06/15 08:20:24;;;;;;;11.23;4.43;;;26.60;99.90;;;;;;4165122;28;20176;-89
2022/06/15 08:22:25;;;;;;;10.40;3.70;;;26.20;99.90;;;;;;4164933;28;20175;-91
2022/06/15 08:24:26;;;;;;;12.98;4.00;;;25.90;99.90;;;;;;4164909;28;20316;-91
2022/06/15 08:26:35;;;;;;;10.43;3.42;;;25.80;99.90;;;;;;4164891;28;20184;-91
2022/06/15 08:28:38;;;;;;;10.10;4.07;;;26.00;99.90;;;;;;4164514;28;20223;-87
2022/06/15 08:30:39;;;;;;;11.18;3.78;;;25.50;99.90;;;;;;4164616;28;20176;-89
2022/06/15 08:32:43;;;;;;;12.43;4.13;;;25.20;99.90;;;;;;4181290;28;20245;-87
2022/06/15 08:34:44;;;;;;;12.25;3.97;;;25.20;99.90;;;;;;4164776;28;20218;-91
2022/06/15 08:36:44;;;;;;;9.57;3.30;;;25.30;99.90;;;;;;4180966;28;20167;-88
2022/06/15 08:38:46;;;;;;;14.38;3.97;;;25.50;99.90;;;;;;4164536;28;20265;-88
2022/06/15 08:41:01;;;;;;;14.18;4.20;;;25.70;99.90;;;;;;4164795;28;20180;-88
2022/06/15 08:43:35;;;;;;;8.85;3.42;;;26.00;99.90;;;;;;4164535;28;20172;-88
2022/06/15 08:45:43;;;;;;;11.10;3.97;;;26.20;99.90;;;;;;4181121;28;20167;-88
2022/06/15 08:47:55;;;;;;;9.95;3.97;;;25.70;99.90;;;;;;4180939;28;20210;-89
2022/06/15 08:50:12;;;;;;;11.48;3.88;;;25.40;99.90;;;;;;4164592;28;20179;-92
2022/06/15 08:52:18;;;;;;;9.32;3.85;;;25.20;99.90;;;;;;4164405;28;20168;-88
2022/06/15 08:54:33;;;;;;;8.60;3.85;;;25.10;99.90;;;;;;4164565;28;20175;-88
2022/06/15 08:56:39;;;;;;;9.70;4.18;;;25.20;99.90;;;;;;4180778;28;20209;-92
2022/06/15 08:59:03;;;;;;;9.38;4.07;;;25.30;99.90;;;;;;4164380;28;20648;-88
2022/06/15 09:01:21;;;;;;;8.55;3.65;;;25.60;99.90;;;;;;4164430;28;20203;-91
2022/06/15 09:03:49;;;;;;;10.80;4.25;;;25.70;99.90;;;;;;4164285;28;20591;-91
2022/06/15 09:06:14;;;;;;;12.60;4.18;;;25.70;99.90;;;;;;4164181;28;20210;-88
2022/06/15 09:08:27;;;;;;;13.07;4.10;;;25.50;99.90;;;;;;4164218;28;20715;-88
2022/06/15 09:10:36;;;;;;;9.48;3.85;;;25.30;99.90;;;;;;4164205;28;20233;-88
2022/06/15 09:13:10;;;;;;;12.90;4.50;;;25.10;99.90;;;;;;4180955;28;20630;-91
2022/06/15 09:15:39;;;;;;;9.20;4.03;;;24.90;99.90;;;;;;4164444;28;20192;-87
2022/06/15 09:17:41;;;;;;;11.52;4.20;;;25.00;99.90;;;;;;4164604;28;20258;-88
2022/06/15 09:19:59;;;;;;;13.50;4.45;;;25.40;99.90;;;;;;4164485;28;20188;-87
2022/06/15 09:22:06;;;;;;;10.02;3.88;;;25.40;99.90;;;;;;4180701;28;20681;-88
2022/06/15 09:24:20;;;;;;;10.80;3.72;;;25.20;99.90;;;;;;4164109;28;20172;-92
2022/06/15 09:26:29;;;;;;;8.57;3.88;;;25.30;99.90;;;;;;4180764;28;20180;-88
2022/06/15 09:28:42;;;;;;;12.05;3.50;;;25.70;99.90;;;;;;4164949;28;20215;-91
2022/06/15 09:30:44;;;;;;;12.45;3.67;;;26.50;99.90;;;;;;4167202;28;20179;-87
2022/06/15 09:32:53;;;;;;;12.30;3.70;;;27.10;99.90;;;;;;4167152;28;20271;-87
2022/06/15 09:35:04;;;;;;;8.68;3.80;;;27.00;99.90;;;;;;4183632;28;20647;-92
2022/06/15 09:37:16;;;;;;;7.38;3.50;;;26.50;99.90;;;;;;4167461;28;20641;-91
2022/06/15 09:39:18;;;;;;;11.10;3.63;;;26.40;99.90;;;;;;4183696;28;20195;-91
2022/06/15 09:41:33;;;;;;;15.77;3.88;;;26.50;99.90;;;;;;4167170;28;20172;-91
2022/06/15 09:43:55;;;;;;;12.27;4.05;;;26.50;99.90;;;;;;4183470;28;20199;-91
2022/06/15 09:45:56;;;;;;;10.48;4.03;;;26.80;99.90;;;;;;4167296;28;20177;-91
2022/06/15 09:48:03;;;;;;;10.43;3.67;;;27.50;99.90;;;;;;4183714;28;20218;-87
2022/06/15 09:50:11;;;;;;;11.90;4.53;;;27.70;99.90;;;;;;4183662;28;20663;-87
2022/06/15 09:52:29;;;;;;;9.95;3.42;;;27.60;99.90;;;;;;4166885;28;20171;-88
2022/06/15 09:54:48;;;;;;;18.00;4.47;;;27.20;99.90;;;;;;4167529;28;20245;-92
2022/06/15 09:56:50;;;;;;;13.02;3.83;;;27.00;99.90;;;;;;4166869;28;20683;-88
2022/06/15 09:58:59;;;;;;;8.88;3.85;;;27.70;99.90;;;;;;4183356;28;20195;-91
2022/06/15 10:01:00;;;;;;;13.27;4.40;;;28.00;99.90;;;;;;4166953;28;20214;-88
2022/06/15 10:03:12;;;;;;;14.27;4.38;;;27.60;99.90;;;;;;4183409;28;20171;-91
2022/06/15 10:05:28;;;;;;;11.43;3.83;;;28.10;99.90;;;;;;4183651;28;20551;-88
2022/06/15 10:07:43;;;;;;;7.70;3.45;;;28.00;99.90;;;;;;4166847;28;20204;-91
2022/06/15 10:09:52;;;;;;;13.32;4.30;;;28.80;99.90;;;;;;4167041;28;20191;-87
2022/06/15 10:12:55;;;;;;;15.05;4.25;;;29.20;99.90;;;;;;4183404;28;20262;-88
2022/06/15 10:14:32;;;;;;;9.38;3.80;;;28.80;99.90;;;;;;4184207;28;20211;-87
2022/06/15 10:16:33;;;;;;;16.85;4.75;;;28.20;99.90;;;;;;4183440;28;20170;-92
2022/06/15 10:18:42;;;;;;;11.93;4.80;;;27.70;99.90;;;;;;4166549;28;20196;-87
2022/06/15 10:21:01;;;;;;;8.05;4.03;;;27.20;99.90;;;;;;4166443;28;20180;-90
2022/06/15 10:23:06;;;;;;;13.88;3.80;;;27.40;99.90;;;;;;4166299;28;20629;-92
2022/06/15 10:25:17;;;;;;;11.02;3.17;;;27.50;99.90;;;;;;4166442;28;20179;-90
2022/06/15 10:27:36;;;;;;;12.32;3.65;;;27.80;99.90;;;;;;4166236;28;20176;-91
2022/06/15 10:29:37;;;;;;;12.40;3.30;;;27.40;99.90;;;;;;4166181;28;20299;-87
2022/06/15 10:31:38;;;;;;;16.08;4.20;;;26.40;99.90;;;;;;4166453;28;20636;-92
2022/06/15 10:33:46;;;;;;;13.85;4.43;;;26.30;99.90;;;;;;4182748;28;20187;-87
2022/06/15 10:35:59;;;;;;;12.15;3.60;;;26.00;99.90;;;;;;4182761;28;20171;-93
2022/06/15 10:38:04;;;;;;;13.07;3.85;;;25.70;99.90;;;;;;4166391;28;20215;-92
2022/06/15 10:40:19;;;;;;;9.90;3.55;;;25.70;99.90;;;;;;4181746;28;20164;-86
2022/06/15 10:42:30;;;;;;;12.13;4.07;;;25.70;99.90;;;;;;4182669;28;20186;-89
2022/06/15 10:44:41;;;;;;;11.38;4.53;;;25.50;99.90;;;;;;4166295;28;20175;-87
2022/06/15 10:46:55;;;;;;;9.63;3.45;;;25.30;99.90;;;;;;4182608;28;20175;-92
2022/06/15 10:48:57;;;;;;;13.55;4.47;;;25.40;99.90;;;;;;4165990;28;20703;-92
2022/06/15 10:51:08;;;;;;;17.83;4.32;;;25.50;99.90;;;;;;4182808;28;20183;-89
2022/06/15 10:53:27;;;;;;;10.75;3.42;;;25.50;99.90;;;;;;4182711;28;20211;-87
2022/06/15 11:02:46;;;;;;;10.90;3.33;;;25.50;99.90;;;;;;4182718;28;20622;-88
2022/06/15 11:04:47;;;;;;;11.18;4.38;;;25.60;99.90;;;;;;4182267;28;20258;-87
2022/06/15 11:06:52;;;;;;;18.75;3.95;;;25.70;99.90;;;;;;4166090;28;20651;-88
2022/06/15 11:08:53;;;;;;;11.98;3.63;;;25.80;99.90;;;;;;4182318;28;20580;-88
2022/06/15 11:11:17;;;;;;;11.32;3.45;;;25.60;99.90;;;;;;4182349;28;20213;-87